Grass Valley, CA

5:27 AM PDT on August 31, 2014 (GMT -0700)
Jones Ridge | Change Station
CLOSE
Current Station
Personal Weather Station
Location: Grass Valley, CA
Elevation: 3061 ft
Nearby Weather Stations

Elev 3061 ft 39.22 °N, 120.94 °W | Updated 15 seconds ago

Clear
Clear
69.3 °F
Feels Like 69.3 °F
N
0.0
Wind Variable Wind from WSW
Gusts 0.0 mph

Today
High -- | Low -- °F
--% Chance of Precip.
Yesterday
High -- | Low -- °F
Precip. -- in
6:31 AM 7:35 PM
Waxing Crescent, 30% visible
Pressure 29.89 in
Visibility 10.0 miles
Clouds Clear
Dew Point 37 °F
Humidity 31%
Rainfall 0.00 in
Snow Depth Not available.
UV 0 out of 12
Pollen 8.30 out of 12
Ozone Good
Flu Activity Not available.
METAR KAUN 311215Z AUTO 07003KT 10SM CLR 19/06 A2989 RMK AO1

More Conditions Fewer Conditions

Pressure 29.89 in
Visibility 10.0 miles
Clouds Clear
Dew Point 37 °F
Humidity 31%
Rainfall 0.00 in
Snow Depth Not available.
UV 0 out of 12
Pollen 8.30 out of 12
Ozone Good
Flu Activity Not available.
METAR KAUN 311215Z AUTO 07003KT 10SM CLR 19/06 A2989 RMK AO1

More Conditions Fewer Conditions

10-Day Weather Forecast

Almanac

Astronomy

Aug. 31, 2014 Rise Set
Actual Time 6:31 AM PDT 7:35 PM PDT
Civil Twilight 6:04 AM PDT 8:03 PM PDT
Nautical Twilight 5:31 AM PDT 8:35 PM PDT
Astronomical Twilight 4:57 AM PDT 9:09 PM PDT
Moon 12:20 PM PDT 10:57 PM PDT
Length of Visible Light 13h 59m
Length of Day
13h 04m
Tomorrow will be 2m 26s shorter.
Waxing Crescent, 30% of the Moon is Illuminated
Today
Waxing Crescent
Sep 2
First Quarter
Sep 8
Full
Sep 15
Last Quarter
Sep 24
New

Today's Extremes

State Highs State Lows

Community

WunderPhotos

Upload Photos

1,748,856 photos uploaded!

Nearby

Air Quality

  Air Quality AQ Index Pollutant
Yesterday Moderate
OZONE
Current Good
OZONE
Sunday Moderate
OZONE
Monday Moderate
OZONE
Tuesday Moderate
OZONE
Wednesday Moderate
OZONE

Snow Depth

Station Depth Elevation
CSS Lab 4 in 6900 ft
Independence Camp 0 in 7000 ft
Independence Creek 0 in 6500 ft
Tahoe City Cross 0 in 6750 ft
Rubicon #2 0 in 7500 ft

Earthquake Activity

City Distance Mag. Time & Date
Napa, California 100 miles 3.2 1:56 AM PDT
2014-08-31
The Geysers, California 104 miles 2.7 2:53 PM PDT
2014-08-29
Minimum magnitude displayed is 2.5.

Coastal Water Temperatures

Place Temperature
No Stations Reporting

Nearby Weather Stations